createdAt,value
2018-11-21T00:02:01.052Z,18.00
2018-11-21T00:04:30.197Z,18.00
2018-11-21T00:06:59.374Z,18.00
2018-11-21T00:09:29.033Z,18.00
2018-11-21T00:11:58.216Z,18.00
2018-11-21T00:14:27.918Z,18.00
2018-11-21T00:16:57.207Z,18.00
2018-11-21T00:19:26.697Z,18.00
2018-11-21T00:21:56.049Z,18.00
2018-11-21T00:24:25.162Z,18.00
2018-11-21T00:26:54.349Z,18.00
2018-11-21T00:29:24.033Z,18.00
2018-11-21T00:31:53.215Z,18.00
2018-11-21T00:34:22.323Z,18.00
2018-11-21T00:36:51.499Z,18.00
2018-11-21T00:39:21.255Z,18.00
2018-11-21T00:41:50.357Z,18.00
2018-11-21T00:44:19.501Z,18.00
2018-11-21T00:46:48.763Z,18.00
2018-11-21T00:49:17.949Z,18.00
2018-11-21T00:51:47.196Z,18.00
2018-11-21T00:54:16.505Z,18.00
2018-11-21T00:56:45.824Z,18.00
2018-11-21T00:59:15.038Z,18.00
2018-11-21T01:01:44.763Z,18.00
2018-11-21T01:04:13.916Z,18.00
2018-11-21T01:06:43.055Z,18.00
2018-11-21T01:09:13.148Z,18.00
2018-11-21T01:11:42.426Z,18.00
2018-11-21T01:14:11.636Z,18.00
2018-11-21T01:16:40.798Z,18.00
2018-11-21T01:19:09.971Z,18.00
2018-11-21T01:21:39.107Z,18.00
2018-11-21T01:24:08.363Z,18.00
2018-11-21T01:26:37.468Z,18.00
2018-11-21T01:29:06.639Z,18.00
2018-11-21T01:31:35.746Z,18.00
2018-11-21T01:34:05.077Z,17.90
2018-11-21T01:36:34.280Z,18.00
2018-11-21T01:39:04.395Z,18.00
2018-11-21T01:41:33.550Z,17.90
2018-11-21T01:44:02.694Z,18.00
2018-11-21T01:46:31.869Z,17.90
2018-11-21T01:49:01.565Z,17.90
2018-11-21T01:51:31.528Z,17.90
2018-11-21T01:54:03.314Z,17.90
2018-11-21T01:56:32.455Z,17.90
2018-11-21T01:59:01.613Z,17.90
2018-11-21T02:01:30.887Z,17.90
2018-11-21T02:04:00.207Z,17.90
2018-11-21T02:06:29.474Z,17.90
2018-11-21T02:08:58.772Z,17.90
2018-11-21T02:11:28.810Z,17.90
2018-11-21T02:13:58.644Z,17.90
2018-11-21T02:16:28.517Z,17.90
2018-11-21T02:18:57.817Z,17.90
2018-11-21T02:21:27.176Z,17.90
2018-11-21T02:23:56.485Z,17.90
2018-11-21T02:26:25.763Z,17.90
2018-11-21T02:28:55.397Z,17.90
2018-11-21T02:31:24.495Z,17.90
2018-11-21T02:33:53.680Z,17.90
2018-11-21T02:36:22.819Z,17.90
2018-11-21T02:38:52.023Z,17.90
2018-11-21T02:41:21.186Z,17.90
2018-11-21T02:43:50.331Z,17.90
2018-11-21T02:46:19.444Z,17.90
2018-11-21T02:48:48.935Z,17.90
2018-11-21T02:51:18.046Z,17.90
2018-11-21T02:53:47.308Z,17.90
2018-11-21T02:56:17.075Z,17.90
2018-11-21T02:58:46.215Z,17.90
2018-11-21T03:01:15.363Z,17.90
2018-11-21T03:03:44.493Z,17.90
2018-11-21T03:06:13.608Z,17.90
2018-11-21T03:08:43.323Z,17.90
2018-11-21T03:11:12.473Z,17.90
2018-11-21T03:13:42.157Z,17.90
2018-11-21T03:16:11.363Z,17.90
2018-11-21T03:18:40.473Z,17.90
2018-11-21T03:21:10.234Z,17.80
2018-11-21T03:23:39.333Z,17.90
2018-11-21T03:26:08.503Z,17.90
2018-11-21T03:28:37.612Z,17.90
2018-11-21T03:31:06.954Z,17.90
2018-11-21T03:33:36.060Z,17.90
2018-11-21T03:36:05.197Z,17.90
2018-11-21T03:38:34.315Z,17.90
2018-11-21T03:41:04.030Z,17.90
2018-11-21T03:43:33.164Z,17.90
2018-11-21T03:46:02.301Z,17.80
2018-11-21T03:48:31.440Z,17.80
2018-11-21T03:51:00.579Z,17.80
2018-11-21T03:53:30.334Z,17.80
2018-11-21T03:56:01.005Z,17.80
2018-11-21T03:58:30.139Z,17.80
2018-11-21T04:00:59.244Z,17.80
2018-11-21T04:03:28.390Z,17.80
2018-11-21T04:05:57.519Z,17.80
2018-11-21T04:08:26.667Z,17.80
2018-11-21T04:10:55.797Z,17.80
2018-11-21T04:13:24.998Z,17.80
2018-11-21T04:15:54.125Z,17.80
2018-11-21T04:18:23.239Z,17.80
2018-11-21T04:20:52.379Z,17.80
2018-11-21T04:23:22.014Z,17.80
2018-11-21T04:25:51.147Z,17.80
2018-11-21T04:28:20.302Z,17.80
2018-11-21T04:30:49.961Z,17.80
2018-11-21T04:33:19.143Z,17.80
2018-11-21T04:35:48.299Z,17.80
2018-11-21T04:38:17.425Z,17.80
2018-11-21T04:40:46.969Z,17.80
2018-11-21T04:43:16.363Z,17.80
2018-11-21T04:45:46.101Z,17.80
2018-11-21T04:48:15.299Z,17.80
2018-11-21T04:50:44.516Z,17.80
2018-11-21T04:53:13.672Z,17.80
2018-11-21T04:55:42.987Z,17.80
2018-11-21T04:58:12.282Z,17.80
2018-11-21T05:00:41.473Z,17.80
2018-11-21T05:03:10.694Z,17.80
2018-11-21T05:05:40.015Z,17.80
2018-11-21T05:08:09.367Z,17.80
2018-11-21T05:10:38.502Z,17.80
2018-11-21T05:13:07.628Z,17.80
2018-11-21T05:15:36.751Z,17.90
2018-11-21T05:18:06.122Z,17.90
2018-11-21T05:20:35.237Z,18.00
2018-11-21T05:23:04.414Z,18.10
2018-11-21T05:25:33.526Z,18.20
2018-11-21T05:28:02.665Z,18.10
2018-11-21T05:30:31.804Z,18.20
2018-11-21T05:33:01.617Z,18.30
2018-11-21T05:35:31.001Z,18.30
2018-11-21T05:38:00.274Z,18.30
2018-11-21T05:40:29.648Z,18.30
2018-11-21T05:42:58.955Z,18.30
2018-11-21T05:45:28.622Z,18.30
2018-11-21T05:47:57.743Z,18.30
2018-11-21T05:50:26.899Z,18.30
2018-11-21T05:52:56.616Z,18.30
2018-11-21T05:55:25.778Z,18.30
2018-11-21T05:57:54.938Z,18.30
2018-11-21T06:00:24.758Z,18.30
2018-11-21T06:02:54.320Z,18.20
2018-11-21T06:05:29.089Z,18.20
2018-11-21T06:08:13.650Z,18.20
2018-11-21T06:10:42.910Z,18.20
2018-11-21T06:13:12.654Z,18.20
2018-11-21T06:15:41.924Z,18.20
2018-11-21T06:18:11.077Z,18.20
2018-11-21T06:20:40.332Z,18.30
2018-11-21T06:23:09.602Z,18.30
2018-11-21T06:25:38.933Z,18.20
2018-11-21T06:28:08.327Z,18.20
2018-11-21T06:30:37.500Z,18.20
2018-11-21T06:33:06.978Z,18.10
2018-11-21T06:35:36.134Z,18.00
2018-11-21T06:38:05.255Z,18.00
2018-11-21T06:40:34.408Z,18.00
2018-11-21T06:43:03.508Z,18.00
2018-11-21T06:45:33.466Z,18.00
2018-11-21T06:48:02.730Z,18.00
2018-11-21T06:50:32.064Z,18.00
2018-11-21T06:53:01.242Z,18.00
2018-11-21T06:55:30.377Z,18.00
2018-11-21T06:58:00.037Z,18.00
2018-11-21T07:00:29.771Z,18.00
2018-11-21T07:02:58.943Z,18.00
2018-11-21T07:05:28.088Z,18.00
2018-11-21T07:08:01.073Z,18.00
2018-11-21T07:10:30.410Z,18.00
2018-11-21T07:12:59.598Z,18.00
2018-11-21T07:15:29.344Z,18.00
2018-11-21T07:17:59.119Z,18.00
2018-11-21T07:20:28.375Z,18.00
2018-11-21T07:22:57.387Z,18.00
2018-11-21T07:25:26.519Z,18.00
2018-11-21T07:27:55.741Z,18.00
2018-11-21T07:30:24.913Z,18.00
2018-11-21T07:32:54.055Z,17.90
2018-11-21T07:35:23.230Z,18.00
2018-11-21T07:37:52.423Z,17.90
2018-11-21T07:40:21.552Z,17.90
2018-11-21T07:42:50.706Z,17.90
2018-11-21T07:45:19.825Z,17.90
2018-11-21T07:47:49.537Z,17.90
2018-11-21T07:50:20.233Z,17.90
2018-11-21T07:52:49.935Z,17.90
2018-11-21T07:55:19.127Z,17.90
2018-11-21T07:57:53.173Z,17.90
2018-11-21T08:01:01.486Z,17.90
2018-11-21T08:03:49.903Z,17.90
2018-11-21T08:06:37.081Z,17.90
2018-11-21T08:09:33.986Z,17.90
2018-11-21T08:12:20.889Z,17.90
2018-11-21T08:15:04.012Z,17.90
2018-11-21T08:18:07.701Z,17.90
2018-11-21T08:20:51.234Z,17.90
2018-11-21T08:23:37.858Z,17.90
2018-11-21T08:26:22.703Z,17.90
2018-11-21T08:28:52.136Z,17.90
2018-11-21T08:31:21.860Z,17.90
2018-11-21T08:33:50.971Z,17.90
2018-11-21T08:36:20.124Z,17.90
2018-11-21T08:38:49.879Z,17.90
2018-11-21T08:41:19.596Z,17.90
2018-11-21T08:43:48.769Z,17.90
2018-11-21T08:46:17.881Z,17.80
2018-11-21T08:48:47.043Z,17.90
2018-11-21T08:51:16.177Z,17.90
2018-11-21T08:53:45.341Z,17.90
2018-11-21T08:56:15.073Z,17.90
2018-11-21T08:58:44.218Z,17.90
2018-11-21T09:01:13.431Z,17.90
2018-11-21T09:03:42.598Z,17.90
2018-11-21T09:06:11.732Z,17.90
2018-11-21T09:08:40.917Z,17.80
2018-11-21T09:11:10.640Z,17.80
2018-11-21T09:13:39.928Z,17.80
2018-11-21T09:16:09.101Z,17.80
2018-11-21T09:18:38.282Z,17.80
2018-11-21T09:21:07.419Z,17.80
2018-11-21T09:23:36.565Z,17.80
2018-11-21T09:26:05.736Z,17.80
2018-11-21T09:28:34.893Z,17.80
2018-11-21T09:31:04.020Z,17.80
2018-11-21T09:33:33.272Z,17.80
2018-11-21T09:36:02.973Z,17.80
2018-11-21T09:38:32.798Z,17.80
2018-11-21T09:41:01.909Z,17.80
2018-11-21T09:43:31.099Z,17.80
2018-11-21T09:46:00.254Z,17.80
2018-11-21T09:48:29.388Z,17.80
2018-11-21T09:50:59.126Z,17.80
2018-11-21T09:53:28.312Z,17.80
2018-11-21T09:55:57.410Z,17.80
2018-11-21T09:58:27.107Z,17.80
2018-11-21T10:01:32.971Z,17.80
2018-11-21T10:04:02.202Z,17.80
2018-11-21T10:06:34.283Z,17.80
2018-11-21T10:09:06.536Z,17.80
2018-11-21T10:11:36.721Z,17.80
2018-11-21T10:14:06.553Z,17.70
2018-11-21T10:16:35.745Z,17.80
2018-11-21T10:19:05.279Z,17.80
2018-11-21T10:21:35.624Z,17.80
2018-11-21T10:24:04.797Z,17.80
2018-11-21T10:26:33.991Z,17.70
2018-11-21T10:29:03.139Z,17.80
2018-11-21T10:31:32.835Z,17.80
2018-11-21T10:34:02.020Z,17.80
2018-11-21T10:36:31.775Z,17.80
2018-11-21T10:39:00.931Z,17.80
2018-11-21T10:41:30.180Z,17.80
2018-11-21T10:43:59.473Z,17.80
2018-11-21T10:46:28.534Z,17.80
2018-11-21T10:48:57.635Z,17.80
2018-11-21T10:51:27.344Z,17.70
2018-11-21T10:53:57.087Z,17.80
2018-11-21T10:56:26.236Z,17.70
2018-11-21T10:58:55.405Z,17.70
2018-11-21T11:01:28.043Z,17.70
2018-11-21T11:04:02.870Z,17.70
2018-11-21T11:06:49.813Z,17.70
2018-11-21T11:09:44.198Z,17.70
2018-11-21T11:12:41.446Z,17.70
2018-11-21T11:15:28.114Z,17.70
2018-11-21T11:18:32.876Z,17.70
2018-11-21T11:21:24.082Z,17.70
2018-11-21T11:24:18.438Z,17.80
2018-11-21T11:27:25.004Z,17.70
2018-11-21T11:30:12.258Z,17.80
2018-11-21T11:33:05.379Z,17.80
2018-11-21T11:35:52.550Z,17.80
2018-11-21T11:38:44.291Z,17.80
2018-11-21T11:41:32.523Z,17.80
2018-11-21T11:44:30.375Z,17.80
2018-11-21T11:47:17.221Z,17.80
2018-11-21T11:50:05.704Z,17.80
2018-11-21T11:52:52.946Z,17.80
2018-11-21T11:55:59.468Z,17.80
2018-11-21T11:58:46.553Z,17.80
2018-11-21T12:01:40.817Z,17.80
2018-11-21T12:04:47.977Z,17.80
2018-11-21T12:07:48.338Z,17.90
2018-11-21T12:10:35.276Z,17.90
2018-11-21T12:13:22.458Z,17.90
2018-11-21T12:16:23.052Z,17.90
2018-11-21T12:19:17.576Z,17.90
2018-11-21T12:22:06.604Z,17.90
2018-11-21T12:24:54.220Z,18.00
2018-11-21T12:27:41.489Z,18.00
2018-11-21T12:30:36.922Z,18.10
2018-11-21T12:33:43.652Z,18.10
2018-11-21T12:36:36.090Z,18.10
2018-11-21T12:39:30.628Z,18.20
2018-11-21T12:42:21.542Z,18.20
2018-11-21T12:45:08.941Z,18.50
2018-11-21T12:47:56.551Z,18.90
2018-11-21T12:50:47.805Z,19.10
2018-11-21T12:53:44.072Z,19.30
2018-11-21T12:56:31.103Z,19.50
2018-11-21T12:59:25.981Z,19.60
2018-11-21T13:02:18.013Z,19.60
2018-11-21T13:04:57.608Z,19.60
2018-11-21T13:07:49.413Z,19.40
2018-11-21T13:10:50.367Z,19.30
2018-11-21T13:13:57.425Z,19.30
2018-11-21T13:16:45.521Z,19.20
2018-11-21T13:19:49.048Z,19.20
2018-11-21T13:22:45.815Z,19.30
2018-11-21T13:25:46.085Z,19.40
2018-11-21T13:28:46.868Z,19.50
2018-11-21T13:31:34.375Z,19.30
2018-11-21T13:34:28.697Z,19.10
2018-11-21T13:37:17.530Z,19.00
2018-11-21T13:40:22.607Z,18.90
2018-11-21T13:43:09.744Z,18.80
2018-11-21T13:46:07.267Z,18.70
2018-11-21T13:48:55.595Z,18.60
2018-11-21T13:51:45.770Z,18.50
2018-11-21T13:54:37.205Z,18.50
2018-11-21T13:57:06.494Z,18.40
2018-11-21T13:59:35.658Z,18.40
2018-11-21T14:02:05.627Z,18.40
2018-11-21T14:04:34.780Z,18.40
2018-11-21T14:07:04.102Z,18.30
2018-11-21T14:09:33.979Z,18.30
2018-11-21T14:12:03.926Z,18.30
2018-11-21T14:14:33.074Z,18.30
2018-11-21T14:17:02.289Z,18.30
2018-11-21T14:19:31.494Z,18.30
2018-11-21T14:22:00.784Z,18.20
2018-11-21T14:24:30.722Z,18.20
2018-11-21T14:27:00.420Z,18.20
2018-11-21T14:29:29.607Z,18.20
2018-11-21T14:31:58.758Z,18.20
2018-11-21T14:34:27.923Z,18.20
2018-11-21T14:36:57.123Z,18.20
2018-11-21T14:39:26.320Z,18.20
2018-11-21T14:41:55.444Z,18.10
2018-11-21T14:44:24.577Z,18.10
2018-11-21T14:46:54.650Z,18.10
2018-11-21T14:49:23.820Z,18.10
2018-11-21T14:51:52.975Z,18.10
2018-11-21T14:54:22.143Z,18.10
2018-11-21T14:56:51.332Z,18.10
2018-11-21T14:59:20.489Z,18.00
2018-11-21T15:01:49.640Z,18.00
2018-11-21T15:04:18.833Z,18.00
2018-11-21T15:06:48.013Z,18.00
2018-11-21T15:09:17.155Z,18.00
2018-11-21T15:11:46.284Z,18.00
2018-11-21T15:14:15.449Z,18.00
2018-11-21T15:16:44.609Z,18.00
2018-11-21T15:19:13.761Z,18.00
2018-11-21T15:21:43.948Z,18.00
2018-11-21T15:24:13.086Z,18.00
2018-11-21T15:26:42.778Z,18.00
2018-11-21T15:29:11.927Z,18.00
2018-11-21T15:31:41.106Z,18.00
2018-11-21T15:34:10.608Z,18.10
2018-11-21T15:36:39.794Z,18.10
2018-11-21T15:39:10.329Z,18.20
2018-11-21T15:41:40.001Z,18.30
2018-11-21T15:44:09.207Z,18.30
2018-11-21T15:46:38.420Z,18.30
2018-11-21T15:49:07.569Z,18.40
2018-11-21T15:51:48.663Z,18.40
2018-11-21T15:54:17.754Z,18.50
2018-11-21T15:56:46.958Z,18.50
2018-11-21T15:59:16.116Z,18.60
2018-11-21T16:01:45.823Z,18.60
2018-11-21T16:04:15.023Z,18.70
2018-11-21T16:06:44.213Z,18.70
2018-11-21T16:09:13.580Z,18.70
2018-11-21T16:11:42.718Z,18.80
2018-11-21T16:14:12.055Z,18.80
2018-11-21T16:16:41.233Z,18.80
2018-11-21T16:19:10.402Z,18.80
2018-11-21T16:21:40.251Z,18.80
2018-11-21T16:24:09.450Z,18.80
2018-11-21T16:26:38.691Z,18.80
2018-11-21T16:29:08.551Z,18.80
2018-11-21T16:31:37.842Z,18.80
2018-11-21T16:34:07.227Z,18.80
2018-11-21T16:36:36.537Z,18.80
2018-11-21T16:39:12.325Z,18.80
2018-11-21T16:41:44.001Z,18.80
2018-11-21T16:44:13.427Z,18.80
2018-11-21T16:46:42.699Z,18.70
2018-11-21T16:49:12.072Z,18.80
2018-11-21T16:51:42.134Z,18.70
2018-11-21T16:54:11.453Z,18.80
2018-11-21T16:56:40.719Z,18.80
2018-11-21T16:59:10.497Z,18.80
2018-11-21T17:01:42.074Z,18.80
2018-11-21T17:04:12.027Z,18.90
2018-11-21T17:06:41.315Z,18.90
2018-11-21T17:09:12.510Z,18.80
